Time;durP1;ratioP1;P1;durP2;ratioP2;P2;SDS_P1;SDS_P2;PMS_P1;PMS_P2;Temp;Humidity;BMP_temperature;BMP_pressure;BME280_temperature;BME280_humidity;BME280_pressure;Samples;Min_cycle;Max_cycle;Signal;HPM_P1;HPM_P2
2021/09/01 00:01:05;;;;;;;15.07;8.77;;;;;;;;;;5049490;28;20043;-60
2021/09/01 00:03:30;;;;;;;14.55;8.95;;;;;;;;;;5050938;28;20062;-59
2021/09/01 00:05:56;;;;;;;17.25;9.35;;;;;;;;;;5051551;28;20028;-60
2021/09/01 00:08:21;;;;;;;20.50;10.18;;;;;;;;;;5063712;28;20434;-60
2021/09/01 00:10:46;;;;;;;17.45;9.90;;;;;;;;;;5048966;28;20460;-60
2021/09/01 00:13:12;;;;;;;19.90;9.95;;;;;;;;;;5049701;28;20508;-60
2021/09/01 00:15:37;;;;;;;18.45;9.85;;;;;;;;;;5051267;28;20467;-60
2021/09/01 00:18:03;;;;;;;20.25;9.30;;;;;;;;;;5048891;28;20107;-60
2021/09/01 00:20:28;;;;;;;16.58;9.07;;;;;;;;;;5047583;28;20505;-60
2021/09/01 00:22:54;;;;;;;16.35;9.30;;;;;;;;;;5049511;28;20039;-60
2021/09/01 00:25:20;;;;;;;16.75;9.45;;;;;;;;;;5050851;28;20393;-61
2021/09/01 00:27:46;;;;;;;16.67;9.57;;;;;;;;;;5052239;28;20024;-60
2021/09/01 00:30:12;;;;;;;17.95;9.48;;;;;;;;;;5048148;28;20025;-60
2021/09/01 00:32:37;;;;;;;14.27;8.70;;;;;;;;;;5050493;28;20158;-60
2021/09/01 00:35:04;;;;;;;19.48;10.32;;;;;;;;;;5053360;28;20346;-60
2021/09/01 00:37:29;;;;;;;17.40;9.65;;;;;;;;;;5054965;28;20040;-60
2021/09/01 00:39:55;;;;;;;18.30;10.07;;;;;;;;;;5046721;28;20036;-60
2021/09/01 00:42:20;;;;;;;14.85;8.75;;;;;;;;;;5050319;28;20025;-61
2021/09/01 00:44:46;;;;;;;15.93;9.02;;;;;;;;;;5047216;28;20539;-60
2021/09/01 00:47:17;;;;;;;20.98;9.70;;;;;;;;;;5048882;28;20029;-60
2021/09/01 00:49:44;;;;;;;23.17;9.73;;;;;;;;;;5049038;28;20029;-60
2021/09/01 00:52:11;;;;;;;17.02;9.82;;;;;;;;;;5047855;28;20552;-60
2021/09/01 00:54:38;;;;;;;18.35;9.82;;;;;;;;;;5065475;28;20103;-60
2021/09/01 00:57:05;;;;;;;16.08;9.13;;;;;;;;;;5049704;28;20036;-60
2021/09/01 00:59:37;;;;;;;17.55;8.48;;;;;;;;;;5049230;28;20029;-60
2021/09/01 01:02:03;;;;;;;16.02;9.23;;;;;;;;;;5048582;28;20025;-60
2021/09/01 01:04:33;;;;;;;15.50;9.02;;;;;;;;;;5051448;28;20080;-60
2021/09/01 01:07:16;;;;;;;16.98;8.85;;;;;;;;;;5048141;28;20029;-60
2021/09/01 01:09:42;;;;;;;16.05;8.63;;;;;;;;;;5046837;28;20117;-60
2021/09/01 01:12:12;;;;;;;14.55;8.70;;;;;;;;;;5053375;28;20496;-60
2021/09/01 01:14:43;;;;;;;15.90;9.45;;;;;;;;;;5050830;28;20555;-60
2021/09/01 01:17:14;;;;;;;15.98;9.23;;;;;;;;;;5049236;28;20639;-59
2021/09/01 01:19:51;;;;;;;15.98;9.38;;;;;;;;;;5046591;28;20044;-60
2021/09/01 01:22:22;;;;;;;17.42;8.93;;;;;;;;;;5044168;28;20025;-60
2021/09/01 01:24:48;;;;;;;16.58;9.10;;;;;;;;;;5065490;28;20109;-60
2021/09/01 01:27:40;;;;;;;16.05;8.95;;;;;;;;;;5047915;28;20025;-60
2021/09/01 01:30:14;;;;;;;18.05;9.40;;;;;;;;;;5049177;28;20025;-60
2021/09/01 01:32:43;;;;;;;16.50;9.10;;;;;;;;;;5052350;28;20086;-59
2021/09/01 01:35:09;;;;;;;14.93;8.32;;;;;;;;;;5051952;28;20036;-60
2021/09/01 01:37:35;;;;;;;12.98;8.18;;;;;;;;;;5046397;28;20415;-60
2021/09/01 01:40:01;;;;;;;16.45;8.30;;;;;;;;;;5051447;28;20081;-61
2021/09/01 01:42:27;;;;;;;17.13;9.20;;;;;;;;;;5046212;28;20055;-60
2021/09/01 01:44:52;;;;;;;13.73;8.65;;;;;;;;;;5063013;28;20044;-59
2021/09/01 01:47:18;;;;;;;16.42;8.75;;;;;;;;;;5048401;28;20085;-59
2021/09/01 01:49:43;;;;;;;13.82;8.60;;;;;;;;;;5046736;28;20051;-60
2021/09/01 01:52:09;;;;;;;15.90;8.52;;;;;;;;;;5048902;28;20126;-60
2021/09/01 01:54:35;;;;;;;16.35;9.57;;;;;;;;;;5047689;28;20498;-60
2021/09/01 01:57:00;;;;;;;18.05;8.38;;;;;;;;;;5049302;28;20031;-60
2021/09/01 01:59:26;;;;;;;16.38;8.95;;;;;;;;;;5050356;28;20028;-60
2021/09/01 02:01:51;;;;;;;17.25;8.93;;;;;;;;;;5046966;28;20385;-60
2021/09/01 02:04:17;;;;;;;18.35;8.68;;;;;;;;;;5047955;28;20029;-60
2021/09/01 02:06:42;;;;;;;16.05;9.02;;;;;;;;;;5048344;28;20235;-60
2021/09/01 02:09:08;;;;;;;18.75;8.65;;;;;;;;;;5050579;28;20107;-60
2021/09/01 02:11:33;;;;;;;17.52;8.88;;;;;;;;;;5046358;28;20159;-60
2021/09/01 02:13:58;;;;;;;16.80;8.98;;;;;;;;;;5050960;28;20040;-60
2021/09/01 02:16:24;;;;;;;14.82;8.85;;;;;;;;;;5049739;28;20032;-60
2021/09/01 02:18:49;;;;;;;18.02;8.80;;;;;;;;;;5048500;28;20438;-60
2021/09/01 02:21:15;;;;;;;16.83;8.77;;;;;;;;;;5050678;28;20032;-60
2021/09/01 02:23:40;;;;;;;16.75;8.73;;;;;;;;;;5047790;28;20086;-60
2021/09/01 02:26:06;;;;;;;16.65;8.77;;;;;;;;;;5047901;28;20013;-60
2021/09/01 02:28:31;;;;;;;16.73;8.27;;;;;;;;;;5048303;28;20040;-60
2021/09/01 02:30:56;;;;;;;16.77;8.65;;;;;;;;;;5050329;28;20036;-60
2021/09/01 02:33:22;;;;;;;13.35;7.95;;;;;;;;;;5046331;28;20025;-60
2021/09/01 02:35:47;;;;;;;14.50;7.88;;;;;;;;;;5044201;28;20028;-60
2021/09/01 02:38:13;;;;;;;17.77;8.77;;;;;;;;;;5047306;28;20021;-60
2021/09/01 02:40:38;;;;;;;17.02;8.63;;;;;;;;;;5053401;28;20451;-59
2021/09/01 02:43:04;;;;;;;13.60;8.65;;;;;;;;;;5045412;28;20399;-60
2021/09/01 02:45:29;;;;;;;17.88;9.07;;;;;;;;;;5051650;28;20029;-60
2021/09/01 02:47:55;;;;;;;14.95;7.82;;;;;;;;;;5047685;28;20028;-60
2021/09/01 02:50:21;;;;;;;17.65;8.93;;;;;;;;;;5045816;28;20033;-61
2021/09/01 02:52:46;;;;;;;15.98;8.68;;;;;;;;;;5047708;28;20025;-60
2021/09/01 02:55:12;;;;;;;19.13;8.60;;;;;;;;;;5046399;28;20519;-59
2021/09/01 02:57:37;;;;;;;15.45;8.57;;;;;;;;;;5047840;28;20047;-60
2021/09/01 03:00:06;;;;;;;22.90;10.45;;;;;;;;;;5046306;28;20369;-59
2021/09/01 03:02:32;;;;;;;15.50;8.13;;;;;;;;;;5044390;28;20029;-59
2021/09/01 03:04:57;;;;;;;18.05;9.55;;;;;;;;;;5045528;28;20094;-59
2021/09/01 03:07:23;;;;;;;16.65;9.05;;;;;;;;;;5045644;28;20049;-59
2021/09/01 03:09:48;;;;;;;16.00;8.60;;;;;;;;;;5049073;28;20114;-59
2021/09/01 03:12:14;;;;;;;18.80;9.75;;;;;;;;;;5049138;28;20544;-59
2021/09/01 03:14:39;;;;;;;15.55;8.85;;;;;;;;;;5045715;28;20040;-59
2021/09/01 03:17:05;;;;;;;14.65;8.32;;;;;;;;;;5047534;28;20025;-59
2021/09/01 03:19:30;;;;;;;17.23;9.43;;;;;;;;;;5061276;28;20041;-59
2021/09/01 03:21:56;;;;;;;17.30;9.27;;;;;;;;;;5046978;28;20063;-60
2021/09/01 03:24:21;;;;;;;16.30;9.15;;;;;;;;;;5046247;28;20023;-60
2021/09/01 03:26:47;;;;;;;18.15;9.43;;;;;;;;;;5046388;28;20032;-59
2021/09/01 03:29:12;;;;;;;19.15;10.05;;;;;;;;;;5045167;28;20491;-59
2021/09/01 03:31:38;;;;;;;15.63;9.23;;;;;;;;;;5046383;28;20033;-60
2021/09/01 03:34:03;;;;;;;16.95;8.73;;;;;;;;;;5045970;28;20027;-60
2021/09/01 03:36:28;;;;;;;16.10;8.60;;;;;;;;;;5046051;28;20071;-59
2021/09/01 03:38:54;;;;;;;17.33;9.63;;;;;;;;;;5047589;28;20445;-59
2021/09/01 03:41:19;;;;;;;18.13;9.32;;;;;;;;;;5046547;28;20462;-60
2021/09/01 03:43:45;;;;;;;14.20;8.20;;;;;;;;;;5051587;28;20052;-59
2021/09/01 03:46:10;;;;;;;20.75;9.80;;;;;;;;;;5046950;28;20024;-59
2021/09/01 03:48:36;;;;;;;22.92;10.10;;;;;;;;;;5043844;28;20079;-59
2021/09/01 03:51:02;;;;;;;24.40;10.32;;;;;;;;;;5047424;28;20059;-59
2021/09/01 03:53:27;;;;;;;25.23;10.82;;;;;;;;;;5047907;28;20029;-60
2021/09/01 03:55:52;;;;;;;28.23;11.90;;;;;;;;;;5050491;28;20036;-59
2021/09/01 03:58:18;;;;;;;27.20;10.75;;;;;;;;;;5050874;28;20063;-59
2021/09/01 04:00:44;;;;;;;25.73;11.05;;;;;;;;;;5049156;28;20039;-59
2021/09/01 04:03:09;;;;;;;22.88;10.02;;;;;;;;;;5050371;28;20021;-59
2021/09/01 04:05:35;;;;;;;26.45;11.40;;;;;;;;;;5053003;28;20033;-59
2021/09/01 04:08:01;;;;;;;26.92;12.35;;;;;;;;;;5049460;28;20032;-60
2021/09/01 04:10:27;;;;;;;26.88;11.02;;;;;;;;;;5047748;28;20039;-60
2021/09/01 04:12:52;;;;;;;26.70;11.23;;;;;;;;;;5051654;28;20031;-59
2021/09/01 04:15:17;;;;;;;26.77;10.68;;;;;;;;;;5053356;28;20480;-60
2021/09/01 04:17:43;;;;;;;25.77;10.98;;;;;;;;;;5048108;28;20107;-59
2021/09/01 04:20:09;;;;;;;21.05;10.32;;;;;;;;;;5050570;28;20446;-59
2021/09/01 04:22:34;;;;;;;18.85;9.93;;;;;;;;;;5049562;28;20196;-59
2021/09/01 04:25:00;;;;;;;17.83;8.60;;;;;;;;;;5053011;28;20037;-59
2021/09/01 04:27:25;;;;;;;18.70;8.95;;;;;;;;;;5044778;28;20071;-60
2021/09/01 04:29:50;;;;;;;19.60;8.93;;;;;;;;;;5064201;28;20086;-59
2021/09/01 04:32:16;;;;;;;21.65;9.32;;;;;;;;;;5051319;28;20020;-59
2021/09/01 04:34:42;;;;;;;27.42;11.65;;;;;;;;;;5048044;28;20060;-60
2021/09/01 04:37:07;;;;;;;24.73;10.48;;;;;;;;;;5047737;28;20032;-59
2021/09/01 04:39:33;;;;;;;19.63;9.63;;;;;;;;;;5050927;28;20047;-60
2021/09/01 04:41:58;;;;;;;27.40;10.43;;;;;;;;;;5050322;28;20052;-60
2021/09/01 04:44:23;;;;;;;23.27;10.43;;;;;;;;;;5048740;28;20127;-59
2021/09/01 04:46:49;;;;;;;23.48;11.25;;;;;;;;;;5048352;28;20036;-59
2021/09/01 04:49:14;;;;;;;25.67;11.02;;;;;;;;;;5048955;28;20025;-59
2021/09/01 04:51:40;;;;;;;25.35;11.13;;;;;;;;;;5051092;28;20431;-60
2021/09/01 04:54:05;;;;;;;25.55;11.70;;;;;;;;;;5049887;28;20407;-59
2021/09/01 04:56:31;;;;;;;26.75;12.60;;;;;;;;;;5053552;28;20216;-60
2021/09/01 04:58:56;;;;;;;24.80;12.20;;;;;;;;;;5048139;28;20037;-59
2021/09/01 05:01:21;;;;;;;31.50;12.02;;;;;;;;;;5051122;28;20029;-60
2021/09/01 05:03:47;;;;;;;22.52;10.98;;;;;;;;;;5048021;28;20203;-59
2021/09/01 05:06:13;;;;;;;19.27;9.40;;;;;;;;;;5046788;28;20090;-59
2021/09/01 05:08:38;;;;;;;25.85;10.30;;;;;;;;;;5047522;28;20491;-59
2021/09/01 05:11:03;;;;;;;18.75;8.45;;;;;;;;;;5049110;28;20032;-59
2021/09/01 05:13:29;;;;;;;15.77;8.82;;;;;;;;;;5049701;28;20150;-58
2021/09/01 05:15:54;;;;;;;14.77;7.78;;;;;;;;;;5051982;28;20029;-59
2021/09/01 05:18:20;;;;;;;18.65;8.95;;;;;;;;;;5051656;28;20029;-60
2021/09/01 05:20:48;;;;;;;19.45;9.30;;;;;;;;;;5051492;28;20033;-59
2021/09/01 05:23:16;;;;;;;21.63;9.25;;;;;;;;;;5053648;28;20027;-59
2021/09/01 05:25:41;;;;;;;21.55;10.45;;;;;;;;;;5048532;28;20033;-59
2021/09/01 05:28:07;;;;;;;19.40;9.45;;;;;;;;;;5049450;28;20028;-59
2021/09/01 05:30:33;;;;;;;18.23;9.30;;;;;;;;;;5062536;28;20044;-59
2021/09/01 05:33:04;;;;;;;20.02;9.40;;;;;;;;;;5049018;28;20033;-58
2021/09/01 05:35:30;;;;;;;20.27;10.85;;;;;;;;;;5047404;28;20403;-59
2021/09/01 05:37:56;;;;;;;27.33;13.30;;;;;;;;;;5047651;28;20029;-59
2021/09/01 05:40:21;;;;;;;26.92;13.18;;;;;;;;;;5048326;28;20472;-59
2021/09/01 05:42:48;;;;;;;25.25;13.13;;;;;;;;;;5050939;28;20074;-59
2021/09/01 05:45:13;;;;;;;27.30;13.50;;;;;;;;;;5046938;28;20028;-59
2021/09/01 05:47:39;;;;;;;30.05;12.98;;;;;;;;;;5048868;28;20491;-59
2021/09/01 05:50:05;;;;;;;27.88;13.15;;;;;;;;;;5048719;28;20472;-59
2021/09/01 05:52:31;;;;;;;26.73;13.13;;;;;;;;;;5045879;28;20037;-59
2021/09/01 05:55:00;;;;;;;25.15;13.05;;;;;;;;;;5048550;28;20135;-59
2021/09/01 05:57:39;;;;;;;24.93;13.10;;;;;;;;;;5049735;28;20024;-59
2021/09/01 06:00:08;;;;;;;26.98;14.32;;;;;;;;;;5061713;28;20278;-59
2021/09/01 06:02:38;;;;;;;24.80;12.30;;;;;;;;;;5045706;28;20032;-58
2021/09/01 06:05:05;;;;;;;23.08;12.38;;;;;;;;;;5049663;28;20036;-59
2021/09/01 06:07:32;;;;;;;23.35;12.30;;;;;;;;;;5048587;28;20560;-59
2021/09/01 06:10:02;;;;;;;24.17;12.57;;;;;;;;;;5046190;28;20499;-59
2021/09/01 06:12:30;;;;;;;21.92;11.98;;;;;;;;;;5049116;28;20041;-59
2021/09/01 06:14:56;;;;;;;22.15;11.98;;;;;;;;;;5048089;28;20078;-59
2021/09/01 06:17:21;;;;;;;20.38;11.50;;;;;;;;;;5051476;28;20048;-60
2021/09/01 06:19:47;;;;;;;24.50;12.57;;;;;;;;;;5047620;28;20518;-59
2021/09/01 06:22:15;;;;;;;23.00;11.60;;;;;;;;;;5051130;28;20040;-59
2021/09/01 06:24:41;;;;;;;86.65;13.45;;;;;;;;;;5048838;28;20032;-59
2021/09/01 06:27:06;;;;;;;25.95;12.25;;;;;;;;;;5044689;28;20017;-59
2021/09/01 06:29:32;;;;;;;25.05;12.13;;;;;;;;;;5047350;28;20511;-59
2021/09/01 06:31:57;;;;;;;27.00;13.50;;;;;;;;;;5062213;28;20036;-59
2021/09/01 06:34:23;;;;;;;25.65;11.30;;;;;;;;;;5046754;28;20025;-59
2021/09/01 06:36:49;;;;;;;23.85;11.50;;;;;;;;;;5051167;28;20476;-59
2021/09/01 06:39:14;;;;;;;28.77;11.18;;;;;;;;;;5045094;28;20094;-59
2021/09/01 06:41:40;;;;;;;25.55;11.70;;;;;;;;;;5048246;28;20116;-59
2021/09/01 06:44:06;;;;;;;22.02;11.10;;;;;;;;;;5046377;28;20108;-58
2021/09/01 06:46:32;;;;;;;23.60;11.35;;;;;;;;;;5046257;28;20163;-59
2021/09/01 06:48:58;;;;;;;38.28;11.75;;;;;;;;;;5045743;28;20462;-59
2021/09/01 06:51:23;;;;;;;19.90;10.82;;;;;;;;;;5046804;28;20029;-59
2021/09/01 06:53:49;;;;;;;23.00;10.68;;;;;;;;;;5046607;28;20446;-58
2021/09/01 06:56:14;;;;;;;21.92;11.50;;;;;;;;;;5048819;28;20028;-59
2021/09/01 06:58:40;;;;;;;26.23;11.40;;;;;;;;;;5048095;28;20037;-59
2021/09/01 07:01:05;;;;;;;21.48;11.30;;;;;;;;;;5049114;28;20066;-58
2021/09/01 07:03:31;;;;;;;21.10;10.93;;;;;;;;;;5060871;28;20104;-59
2021/09/01 07:05:56;;;;;;;23.60;10.75;;;;;;;;;;5061306;28;20017;-59
2021/09/01 07:08:23;;;;;;;20.67;11.40;;;;;;;;;;5048119;28;20108;-59
2021/09/01 07:10:50;;;;;;;20.63;11.45;;;;;;;;;;5047906;28;20452;-59
2021/09/01 07:13:15;;;;;;;24.05;12.35;;;;;;;;;;5047639;28;20472;-59
2021/09/01 07:15:41;;;;;;;22.88;12.68;;;;;;;;;;5046099;28;20036;-59
2021/09/01 07:18:07;;;;;;;21.15;11.27;;;;;;;;;;5048036;28;20035;-59
2021/09/01 07:20:32;;;;;;;23.35;11.25;;;;;;;;;;5051104;28;20029;-59
2021/09/01 07:22:58;;;;;;;19.98;10.93;;;;;;;;;;5046229;28;20434;-59
2021/09/01 07:25:23;;;;;;;17.25;10.30;;;;;;;;;;5046834;28;20096;-59
2021/09/01 07:27:49;;;;;;;23.45;12.57;;;;;;;;;;5050455;28;20521;-59
2021/09/01 07:30:15;;;;;;;21.55;11.30;;;;;;;;;;5051195;28;20025;-59
2021/09/01 07:32:40;;;;;;;20.50;11.75;;;;;;;;;;5049464;28;20495;-59
2021/09/01 07:35:06;;;;;;;19.42;11.20;;;;;;;;;;5052477;28;20111;-59
2021/09/01 07:37:31;;;;;;;19.50;11.30;;;;;;;;;;5051084;28;20036;-59
2021/09/01 07:39:57;;;;;;;20.58;11.50;;;;;;;;;;5065797;28;20021;-59
2021/09/01 07:42:22;;;;;;;20.15;11.18;;;;;;;;;;5052067;28;20115;-59
2021/09/01 07:44:48;;;;;;;19.98;11.32;;;;;;;;;;5049547;28;20032;-58
2021/09/01 07:47:13;;;;;;;21.73;11.60;;;;;;;;;;5050595;28;20025;-59
2021/09/01 07:49:41;;;;;;;26.65;13.23;;;;;;;;;;5063329;28;20040;-59
2021/09/01 07:52:07;;;;;;;24.02;12.05;;;;;;;;;;5045160;28;20479;-58
2021/09/01 07:54:33;;;;;;;23.75;12.55;;;;;;;;;;5052079;28;20039;-58
2021/09/01 07:56:59;;;;;;;25.98;13.68;;;;;;;;;;5050818;28;20516;-58
2021/09/01 07:59:24;;;;;;;30.13;14.60;;;;;;;;;;5050963;28;20036;-58
2021/09/01 08:01:49;;;;;;;31.15;14.52;;;;;;;;;;5049298;28;20028;-58
2021/09/01 08:04:15;;;;;;;26.50;13.85;;;;;;;;;;5053181;28;20025;-58
2021/09/01 08:06:40;;;;;;;25.58;12.65;;;;;;;;;;5048710;28;20021;-58
2021/09/01 08:09:06;;;;;;;24.08;12.07;;;;;;;;;;5049602;28;20543;-58
2021/09/01 08:11:31;;;;;;;22.20;12.10;;;;;;;;;;5049212;28;20021;-58
2021/09/01 08:13:57;;;;;;;23.45;12.35;;;;;;;;;;5051125;28;20024;-58
2021/09/01 08:16:22;;;;;;;24.70;12.60;;;;;;;;;;5053075;28;20215;-58
2021/09/01 08:18:48;;;;;;;22.05;12.05;;;;;;;;;;5048529;28;20029;-58
2021/09/01 08:21:13;;;;;;;23.35;12.48;;;;;;;;;;5049364;28;20029;-58
2021/09/01 08:23:39;;;;;;;22.02;11.95;;;;;;;;;;5052307;28;20467;-58
2021/09/01 08:26:05;;;;;;;22.65;12.85;;;;;;;;;;5053055;28;20296;-58
2021/09/01 08:28:30;;;;;;;23.90;11.88;;;;;;;;;;5048534;28;20511;-59
2021/09/01 08:30:56;;;;;;;21.00;12.15;;;;;;;;;;5050052;28;20094;-59
2021/09/01 08:33:21;;;;;;;26.65;12.85;;;;;;;;;;5049170;28;20028;-59
2021/09/01 08:35:47;;;;;;;21.42;12.27;;;;;;;;;;5051899;28;20108;-59
2021/09/01 08:38:12;;;;;;;29.08;15.02;;;;;;;;;;5049269;28;20446;-58
2021/09/01 08:40:38;;;;;;;24.17;13.38;;;;;;;;;;5052739;28;20089;-58
2021/09/01 08:43:05;;;;;;;27.92;14.55;;;;;;;;;;5049251;28;20051;-59
2021/09/01 08:45:31;;;;;;;25.85;11.85;;;;;;;;;;5049113;28;20024;-58
2021/09/01 08:47:56;;;;;;;24.83;13.88;;;;;;;;;;5049002;28;20073;-58
2021/09/01 08:50:22;;;;;;;27.38;13.85;;;;;;;;;;5048615;28;20021;-59
2021/09/01 08:52:47;;;;;;;23.63;13.30;;;;;;;;;;5050252;28;20039;-61
2021/09/01 08:55:14;;;;;;;26.67;13.90;;;;;;;;;;5050473;28;20017;-61
2021/09/01 08:57:41;;;;;;;27.52;14.27;;;;;;;;;;5052182;28;20029;-59
2021/09/01 09:00:08;;;;;;;24.48;14.07;;;;;;;;;;5053463;28;20033;-61
2021/09/01 09:02:37;;;;;;;26.70;14.70;;;;;;;;;;5047621;28;20193;-62
2021/09/01 09:05:08;;;;;;;25.42;14.43;;;;;;;;;;5062674;28;20037;-60
2021/09/01 09:07:56;;;;;;;27.42;15.48;;;;;;;;;;5049504;28;20052;-61
2021/09/01 09:10:30;;;;;;;26.35;14.98;;;;;;;;;;5049874;28;20055;-60
2021/09/01 09:12:57;;;;;;;25.70;14.70;;;;;;;;;;5048128;28;20028;-59
2021/09/01 09:15:22;;;;;;;29.20;15.90;;;;;;;;;;5048650;28;20436;-60
2021/09/01 09:17:48;;;;;;;28.67;15.73;;;;;;;;;;5047783;28;20056;-59
2021/09/01 09:20:13;;;;;;;26.23;14.18;;;;;;;;;;5048417;28;20109;-59
2021/09/01 09:22:42;;;;;;;30.95;16.40;;;;;;;;;;5047572;28;20060;-60
2021/09/01 09:25:21;;;;;;;27.53;14.90;;;;;;;;;;5055184;28;20037;-59
2021/09/01 09:27:46;;;;;;;29.20;15.55;;;;;;;;;;5056258;28;20029;-58
2021/09/01 09:30:21;;;;;;;26.23;15.70;;;;;;;;;;5047697;28;20532;-59
2021/09/01 09:33:05;;;;;;;24.50;14.13;;;;;;;;;;5049295;28;20028;-59
2021/09/01 09:35:47;;;;;;;26.13;13.90;;;;;;;;;;5047541;28;20047;-59
2021/09/01 09:38:14;;;;;;;32.30;15.20;;;;;;;;;;5046616;28;20403;-58
2021/09/01 09:40:39;;;;;;;25.25;14.20;;;;;;;;;;5048691;28;20032;-60
2021/09/01 09:43:17;;;;;;;28.30;15.30;;;;;;;;;;5047016;28;20071;-58
2021/09/01 09:45:44;;;;;;;22.60;12.82;;;;;;;;;;5047387;28;20394;-58
2021/09/01 09:48:10;;;;;;;24.40;13.95;;;;;;;;;;5047222;28;20040;-58
2021/09/01 09:50:35;;;;;;;24.60;13.88;;;;;;;;;;5047474;28;20029;-59
2021/09/01 09:53:01;;;;;;;24.10;13.95;;;;;;;;;;5047757;28;20553;-58
2021/09/01 09:55:26;;;;;;;23.20;13.00;;;;;;;;;;5049820;28;20123;-59
2021/09/01 09:57:54;;;;;;;21.92;13.50;;;;;;;;;;5064728;28;20050;-59
2021/09/01 10:00:22;;;;;;;22.88;13.13;;;;;;;;;;5046995;28;20086;-59
2021/09/01 10:02:47;;;;;;;23.50;13.88;;;;;;;;;;5049332;28;20300;-58
2021/09/01 10:05:15;;;;;;;23.88;14.23;;;;;;;;;;5048805;28;20086;-59
2021/09/01 10:07:41;;;;;;;25.63;14.60;;;;;;;;;;5050331;28;20036;-59
2021/09/01 10:10:08;;;;;;;26.67;14.65;;;;;;;;;;5047469;28;20089;-59
2021/09/01 10:12:40;;;;;;;23.38;14.20;;;;;;;;;;5047729;28;20044;-60
2021/09/01 10:15:12;;;;;;;20.45;13.00;;;;;;;;;;5049258;28;20460;-59
2021/09/01 10:17:43;;;;;;;21.48;12.63;;;;;;;;;;5048046;28;20029;-59
2021/09/01 10:20:14;;;;;;;18.92;12.30;;;;;;;;;;5048007;28;20032;-59
2021/09/01 10:22:40;;;;;;;18.27;11.95;;;;;;;;;;5046876;28;20136;-59
2021/09/01 10:25:06;;;;;;;17.55;11.27;;;;;;;;;;5048304;28;20115;-59
2021/09/01 10:27:31;;;;;;;18.40;11.38;;;;;;;;;;5049945;28;20037;-60
2021/09/01 10:30:04;;;;;;;15.05;10.15;;;;;;;;;;5050896;28;21587;-59
2021/09/01 10:32:29;;;;;;;16.55;10.73;;;;;;;;;;5047877;28;20047;-58
2021/09/01 10:35:10;;;;;;;14.18;9.55;;;;;;;;;;5047348;28;20491;-59
2021/09/01 10:37:36;;;;;;;18.38;10.27;;;;;;;;;;5048825;28;20028;-58
2021/09/01 10:40:02;;;;;;;17.17;10.27;;;;;;;;;;5048951;28;20036;-60
2021/09/01 10:42:38;;;;;;;14.90;9.90;;;;;;;;;;5048812;28;20033;-60
2021/09/01 10:45:14;;;;;;;18.02;10.15;;;;;;;;;;5047855;28;20073;-59
2021/09/01 10:47:52;;;;;;;10.18;7.55;;;;;;;;;;5046871;28;20147;-59
2021/09/01 10:50:24;;;;;;;12.82;8.18;;;;;;;;;;5046673;28;20503;-59
2021/09/01 10:53:04;;;;;;;11.38;8.23;;;;;;;;;;5045275;28;20371;-59
2021/09/01 10:55:31;;;;;;;12.93;8.45;;;;;;;;;;5049340;28;20060;-59
2021/09/01 10:58:15;;;;;;;12.25;8.48;;;;;;;;;;5049303;28;20107;-59
2021/09/01 11:00:41;;;;;;;12.82;8.00;;;;;;;;;;5047636;28;20025;-59
2021/09/01 11:03:07;;;;;;;11.43;7.47;;;;;;;;;;5047481;28;20029;-59
2021/09/01 11:05:32;;;;;;;11.40;7.78;;;;;;;;;;5052404;28;20487;-60
2021/09/01 11:07:58;;;;;;;13.23;7.88;;;;;;;;;;5048919;28;20566;-60
2021/09/01 11:10:23;;;;;;;11.73;8.07;;;;;;;;;;5052381;28;20032;-60
2021/09/01 11:13:02;;;;;;;11.40;8.05;;;;;;;;;;5050327;28;20029;-59
2021/09/01 11:15:43;;;;;;;13.13;7.63;;;;;;;;;;5065504;28;20066;-60
2021/09/01 11:18:08;;;;;;;13.45;7.68;;;;;;;;;;5048884;28;20036;-60
2021/09/01 11:20:53;;;;;;;13.20;7.95;;;;;;;;;;5050749;28;20041;-60
2021/09/01 11:23:26;;;;;;;10.55;7.50;;;;;;;;;;5051723;28;20099;-60
2021/09/01 11:25:51;;;;;;;12.25;8.00;;;;;;;;;;5050005;28;20060;-60
2021/09/01 11:28:17;;;;;;;10.88;7.60;;;;;;;;;;5049540;28;20057;-59
2021/09/01 11:30:43;;;;;;;10.32;7.38;;;;;;;;;;5050514;28;20522;-60
2021/09/01 11:33:13;;;;;;;10.30;7.25;;;;;;;;;;5049302;28;20430;-61
2021/09/01 11:35:42;;;;;;;9.85;7.15;;;;;;;;;;5051290;28;20553;-59
2021/09/01 11:38:08;;;;;;;10.73;7.20;;;;;;;;;;5051674;28;20040;-59
2021/09/01 11:40:36;;;;;;;10.60;6.90;;;;;;;;;;5051347;28;20041;-60
2021/09/01 11:43:10;;;;;;;12.10;7.28;;;;;;;;;;5049871;28;20499;-59
2021/09/01 11:45:50;;;;;;;8.63;6.68;;;;;;;;;;5051806;28;20024;-59
2021/09/01 11:48:16;;;;;;;8.52;6.15;;;;;;;;;;5048331;28;20039;-59
2021/09/01 11:50:43;;;;;;;10.15;6.53;;;;;;;;;;5052906;28;20033;-60
2021/09/01 11:53:13;;;;;;;11.05;6.75;;;;;;;;;;5050562;28;20029;-59
2021/09/01 11:55:39;;;;;;;10.18;6.45;;;;;;;;;;5050844;28;20032;-59
2021/09/01 11:58:18;;;;;;;12.85;7.10;;;;;;;;;;5045398;28;20055;-59
2021/09/01 12:00:45;;;;;;;10.98;6.72;;;;;;;;;;5052881;28;20793;-59
2021/09/01 12:03:12;;;;;;;9.00;6.63;;;;;;;;;;5051555;28;20028;-59
2021/09/01 12:05:40;;;;;;;10.98;7.07;;;;;;;;;;5067853;28;20025;-60
2021/09/01 12:08:18;;;;;;;12.00;6.57;;;;;;;;;;5049871;28;20401;-60
2021/09/01 12:10:45;;;;;;;10.30;7.13;;;;;;;;;;5049309;28;20082;-59
2021/09/01 12:13:11;;;;;;;8.07;6.45;;;;;;;;;;5059774;28;20029;-58
2021/09/01 12:15:36;;;;;;;9.15;6.68;;;;;;;;;;5045092;28;20025;-60
2021/09/01 12:18:06;;;;;;;7.88;6.10;;;;;;;;;;5047545;28;20028;-59
2021/09/01 12:20:34;;;;;;;9.70;6.20;;;;;;;;;;5050377;28;20029;-60
2021/09/01 12:23:03;;;;;;;10.50;6.30;;;;;;;;;;5048513;28;20048;-60
2021/09/01 12:25:29;;;;;;;9.10;6.07;;;;;;;;;;5050034;28;20191;-60
2021/09/01 12:28:04;;;;;;;11.35;6.78;;;;;;;;;;5048728;28;20021;-60
2021/09/01 12:30:35;;;;;;;10.05;6.50;;;;;;;;;;5052850;28;20044;-60
2021/09/01 12:33:09;;;;;;;10.05;6.97;;;;;;;;;;5048660;28;20401;-60
2021/09/01 12:35:34;;;;;;;8.63;6.30;;;;;;;;;;5047958;28;20036;-60
2021/09/01 12:38:03;;;;;;;13.68;5.95;;;;;;;;;;5048723;28;20484;-60
2021/09/01 12:40:33;;;;;;;8.03;6.00;;;;;;;;;;5050756;28;20029;-60
2021/09/01 12:43:11;;;;;;;7.40;5.93;;;;;;;;;;5049649;28;20282;-60
2021/09/01 12:45:39;;;;;;;12.52;6.18;;;;;;;;;;5049227;28;20119;-60
2021/09/01 12:48:08;;;;;;;11.05;5.95;;;;;;;;;;5047942;28;20511;-60
2021/09/01 12:50:44;;;;;;;8.63;6.35;;;;;;;;;;5049719;28;20135;-60
2021/09/01 12:53:21;;;;;;;8.32;5.90;;;;;;;;;;5050151;28;20029;-60
2021/09/01 12:55:51;;;;;;;9.95;6.30;;;;;;;;;;5049601;28;20033;-60
2021/09/01 12:58:17;;;;;;;9.27;5.88;;;;;;;;;;5048550;28;20029;-60
2021/09/01 13:00:42;;;;;;;10.45;6.40;;;;;;;;;;5050153;28;20044;-60
2021/09/01 13:03:09;;;;;;;11.25;5.60;;;;;;;;;;5049389;28;20029;-60
2021/09/01 13:05:35;;;;;;;12.02;6.10;;;;;;;;;;5050539;28;20480;-60
2021/09/01 13:08:01;;;;;;;8.30;5.80;;;;;;;;;;5047970;28;20037;-59
2021/09/01 13:10:27;;;;;;;7.40;5.68;;;;;;;;;;5050835;28;20036;-60
2021/09/01 13:12:56;;;;;;;7.60;5.40;;;;;;;;;;5047817;28;20025;-60
2021/09/01 13:15:23;;;;;;;7.68;5.95;;;;;;;;;;5046214;28;20024;-61
2021/09/01 13:17:48;;;;;;;7.57;5.63;;;;;;;;;;5043315;28;20395;-60
2021/09/01 13:20:16;;;;;;;8.32;5.80;;;;;;;;;;5051815;28;20029;-60
2021/09/01 13:22:43;;;;;;;7.97;5.53;;;;;;;;;;5047482;28;20150;-60
2021/09/01 13:25:10;;;;;;;7.88;6.13;;;;;;;;;;5051846;28;20031;-60
2021/09/01 13:27:36;;;;;;;8.35;5.97;;;;;;;;;;5046270;28;20499;-61
2021/09/01 13:30:04;;;;;;;11.40;5.80;;;;;;;;;;5050965;28;20025;-61
2021/09/01 13:32:29;;;;;;;9.95;5.70;;;;;;;;;;5047410;28;20417;-60
2021/09/01 13:34:55;;;;;;;9.40;5.68;;;;;;;;;;5046257;28;20145;-61
2021/09/01 13:37:20;;;;;;;7.50;5.93;;;;;;;;;;5049496;28;20063;-61
2021/09/01 13:39:46;;;;;;;6.88;5.35;;;;;;;;;;5047498;28;20476;-61
2021/09/01 13:42:11;;;;;;;6.95;5.43;;;;;;;;;;5047457;28;20021;-60
2021/09/01 13:44:37;;;;;;;8.77;5.80;;;;;;;;;;5047906;28;20028;-60
2021/09/01 13:47:03;;;;;;;9.80;5.75;;;;;;;;;;5047717;28;20017;-60
2021/09/01 13:49:29;;;;;;;7.85;5.32;;;;;;;;;;5047554;28;20025;-60
2021/09/01 13:51:54;;;;;;;8.48;5.50;;;;;;;;;;5047396;28;20052;-60
2021/09/01 13:54:20;;;;;;;8.93;5.65;;;;;;;;;;5047640;28;20479;-59
2021/09/01 13:56:45;;;;;;;10.20;6.00;;;;;;;;;;5047150;28;20041;-60
2021/09/01 13:59:12;;;;;;;7.93;5.78;;;;;;;;;;5050535;28;20484;-61
2021/09/01 14:01:39;;;;;;;8.68;5.15;;;;;;;;;;5047257;28;20021;-61
2021/09/01 14:04:05;;;;;;;7.17;5.17;;;;;;;;;;5047200;28;20021;-59
2021/09/01 14:06:30;;;;;;;8.90;5.10;;;;;;;;;;5048390;28;20510;-61
2021/09/01 14:08:56;;;;;;;6.88;4.93;;;;;;;;;;5048534;28;20053;-60
2021/09/01 14:11:22;;;;;;;8.07;5.28;;;;;;;;;;5046963;28;20288;-62
2021/09/01 14:13:47;;;;;;;8.32;5.97;;;;;;;;;;5047005;28;20028;-61
2021/09/01 14:16:15;;;;;;;9.85;6.35;;;;;;;;;;5047347;28;20040;-61
2021/09/01 14:18:46;;;;;;;7.70;5.50;;;;;;;;;;5047365;28;20436;-61
2021/09/01 14:21:13;;;;;;;8.48;5.70;;;;;;;;;;5049926;28;20122;-60
2021/09/01 14:23:38;;;;;;;8.82;5.30;;;;;;;;;;5048478;28;20029;-60
2021/09/01 14:26:04;;;;;;;12.35;5.82;;;;;;;;;;5048758;28;20139;-60